Time;durP1;ratioP1;P1;durP2;ratioP2;P2;SDS_P1;SDS_P2;PMS_P1;PMS_P2;Temp;Humidity;BMP_temperature;BMP_pressure;BME280_temperature;BME280_humidity;BME280_pressure;Samples;Min_cycle;Max_cycle;Signal;HPM_P1;HPM_P2
2023/07/12 00:00:34;;;;;;;;;;;;;;;;;;4937754;29;19934;-78
2023/07/12 00:03:06;;;;;;;;;;;;;;;;;;4946455;29;19937;-78
2023/07/12 00:05:39;;;;;;;;;;;;;;;;;;4947944;29;20449;-78
2023/07/12 00:08:06;;;;;;;;;;;;;;;;;;4943253;29;19931;-79
2023/07/12 00:10:39;;;;;;;;;;;;;;;;;;4946837;29;19934;-80
2023/07/12 00:13:06;;;;;;;;;;;;;;;;;;4945394;28;19930;-79
2023/07/12 00:15:34;;;;;;;;;;;;;;;;;;4937938;29;19958;-79
2023/07/12 00:18:02;;;;;;;;;;;;;;;;;;4960249;28;19930;-79
2023/07/12 00:20:29;;;;;;;;;;;;;;;;;;4948269;29;19930;-78
2023/07/12 00:23:02;;;;;;;;;;;;;;;;;;4948000;29;19930;-79
2023/07/12 00:25:29;;;;;;;;;;;;;;;;;;4948256;29;20268;-78
2023/07/12 00:27:57;;;;;;;;;;;;;;;;;;4945391;28;19946;-79
2023/07/12 00:30:29;;;;;;;;;;;;;;;;;;4943986;29;19931;-79
2023/07/12 00:33:02;;;;;;;;;;;;;;;;;;4961482;28;19930;-79
2023/07/12 00:35:29;;;;;;;;;;;;;;;;;;4947743;29;19937;-80
2023/07/12 00:38:02;;;;;;;;;;;;;;;;;;4937394;29;19930;-79
2023/07/12 00:40:29;;;;;;;;;;;;;;;;;;4935942;29;19930;-78
2023/07/12 00:43:02;;;;;;;;;;;;;;;;;;4944063;29;19938;-80
2023/07/12 00:45:35;;;;;;;;;;;;;;;;;;4937880;29;19934;-79
2023/07/12 00:48:02;;;;;;;;;;;;;;;;;;4942894;29;19930;-79
2023/07/12 00:50:30;;;;;;;;;;;;;;;;;;4939065;28;19938;-79
2023/07/12 00:53:02;;;;;;;;;;;;;;;;;;4938197;29;20041;-79
2023/07/12 00:55:35;;;;;;;;;;;;;;;;;;4937181;29;19934;-79
2023/07/12 00:58:02;;;;;;;;;;;;;;;;;;4947122;29;19930;-79
2023/07/12 01:00:30;;;;;;;;;;;;;;;;;;4937368;29;19931;-79
2023/07/12 01:03:04;;;;;;;;;;;;;;;;;;4942255;29;19930;-79
2023/07/12 01:05:31;;;;;;;;;;;;;;;;;;4945820;29;19934;-79
2023/07/12 01:07:59;;;;;;;;;;;;;;;;;;4946921;29;19937;-80
2023/07/12 01:10:29;;;;;;;;;;;;;;;;;;4941737;29;19930;-79
2023/07/12 01:12:56;;;;;;;;;;;;;;;;;;4939260;29;19934;-77
2023/07/12 01:15:24;;;;;;;;;;;;;;;;;;4945767;29;19931;-80
2023/07/12 01:17:56;;;;;;;;;;;;;;;;;;4946592;29;20299;-80
2023/07/12 01:20:24;;;;;;;;;;;;;;;;;;4944772;29;19933;-80
2023/07/12 01:22:52;;;;;;;;;;;;;;;;;;4941656;29;19930;-80
2023/07/12 01:25:20;;;;;;;;;;;;;;;;;;4962322;28;19930;-82
2023/07/12 01:27:47;;;;;;;;;;;;;;;;;;4946490;29;20937;-80
2023/07/12 01:30:20;;;;;;;;;;;;;;;;;;4947284;29;20378;-80
2023/07/12 01:32:47;;;;;;;;;;;;;;;;;;4942868;29;19931;-79
2023/07/12 01:35:15;;;;;;;;;;;;;;;;;;4961271;28;20421;-80
2023/07/12 01:37:47;;;;;;;;;;;;;;;;;;4937303;29;19938;-83
2023/07/12 01:40:15;;;;;;;;;;;;;;;;;;4949034;29;19927;-84
2023/07/12 01:42:47;;;;;;;;;;;;;;;;;;4958763;28;19930;-84
2023/07/12 01:45:15;;;;;;;;;;;;;;;;;;4961945;28;19927;-86
2023/07/12 01:47:43;;;;;;;;;;;;;;;;;;4949588;29;19930;-84
2023/07/12 01:50:15;;;;;;;;;;;;;;;;;;4952361;29;19937;-84
2023/07/12 01:52:43;;;;;;;;;;;;;;;;;;4951087;29;19926;-84
2023/07/12 01:55:10;;;;;;;;;;;;;;;;;;4942944;29;20669;-86
2023/07/12 01:57:43;;;;;;;;;;;;;;;;;;4950797;29;19930;-84
2023/07/12 02:00:16;;;;;;;;;;;;;;;;;;4942062;29;19930;-86
2023/07/12 02:02:43;;;;;;;;;;;;;;;;;;4949700;29;19931;-82
2023/07/12 02:05:18;;;;;;;;;;;;;;;;;;4950142;29;19930;-82
2023/07/12 02:07:45;;;;;;;;;;;;;;;;;;4949578;29;20303;-86
2023/07/12 02:10:14;;;;;;;;;;;;;;;;;;4964089;28;19927;-82
2023/07/12 02:12:47;;;;;;;;;;;;;;;;;;4947842;29;19957;-82
2023/07/12 02:15:16;;;;;;;;;;;;;;;;;;4966565;28;19933;-82
2023/07/12 02:17:48;;;;;;;;;;;;;;;;;;4947938;29;19937;-82
2023/07/12 02:20:16;;;;;;;;;;;;;;;;;;4963336;28;19930;-83
2023/07/12 02:22:43;;;;;;;;;;;;;;;;;;4964118;28;19930;-85
2023/07/12 02:25:15;;;;;;;;;;;;;;;;;;4952133;29;20268;-83
2023/07/12 02:27:44;;;;;;;;;;;;;;;;;;4950250;29;20372;-83
2023/07/12 02:30:12;;;;;;;;;;;;;;;;;;4966009;28;20312;-83
2023/07/12 02:32:39;;;;;;;;;;;;;;;;;;4946948;29;19938;-83
2023/07/12 02:35:07;;;;;;;;;;;;;;;;;;4947120;29;20426;-81
2023/07/12 02:37:34;;;;;;;;;;;;;;;;;;4946609;29;19934;-82
2023/07/12 02:40:02;;;;;;;;;;;;;;;;;;4949116;28;19931;-85
2023/07/12 02:42:30;;;;;;;;;;;;;;;;;;4948566;29;20595;-86
2023/07/12 02:44:57;;;;;;;;;;;;;;;;;;4965170;28;20338;-85
2023/07/12 02:47:25;;;;;;;;;;;;;;;;;;4947597;28;19942;-86
2023/07/12 02:49:52;;;;;;;;;;;;;;;;;;4964805;28;19934;-85
2023/07/12 02:52:20;;;;;;;;;;;;;;;;;;4951348;29;19930;-85
2023/07/12 02:54:48;;;;;;;;;;;;;;;;;;4949060;28;19934;-84
2023/07/12 02:57:15;;;;;;;;;;;;;;;;;;4945425;29;19926;-84
2023/07/12 02:59:43;;;;;;;;;;;;;;;;;;4947379;28;19927;-83
2023/07/12 03:02:10;;;;;;;;;;;;;;;;;;4948897;29;19934;-83
2023/07/12 03:04:43;;;;;;;;;;;;;;;;;;4939929;29;19926;-84
2023/07/12 03:07:15;;;;;;;;;;;;;;;;;;4946789;29;19930;-84
2023/07/12 03:09:43;;;;;;;;;;;;;;;;;;4948511;29;19957;-83
2023/07/12 03:12:10;;;;;;;;;;;;;;;;;;4963905;28;20446;-83
2023/07/12 03:14:38;;;;;;;;;;;;;;;;;;4948492;29;19930;-83
2023/07/12 03:17:10;;;;;;;;;;;;;;;;;;4948284;29;20442;-84
2023/07/12 03:19:38;;;;;;;;;;;;;;;;;;4951075;29;19931;-82
2023/07/12 03:22:05;;;;;;;;;;;;;;;;;;4950629;28;19926;-83
2023/07/12 03:24:33;;;;;;;;;;;;;;;;;;4948529;29;20371;-82
2023/07/12 03:27:00;;;;;;;;;;;;;;;;;;4967409;28;19927;-82
2023/07/12 03:29:28;;;;;;;;;;;;;;;;;;4951217;29;19931;-82
2023/07/12 03:31:55;;;;;;;;;;;;;;;;;;4965586;28;19930;-83
2023/07/12 03:34:23;;;;;;;;;;;;;;;;;;4960502;28;19937;-84
2023/07/12 03:36:50;;;;;;;;;;;;;;;;;;4966015;28;19938;-83
2023/07/12 03:39:18;;;;;;;;;;;;;;;;;;4953234;29;19930;-82
2023/07/12 03:41:45;;;;;;;;;;;;;;;;;;4951029;28;19926;-82
2023/07/12 03:44:13;;;;;;;;;;;;;;;;;;4944912;29;19934;-82
2023/07/12 03:46:41;;;;;;;;;;;;;;;;;;4948300;28;19934;-83
2023/07/12 03:49:08;;;;;;;;;;;;;;;;;;4947061;29;19926;-84
2023/07/12 03:51:36;;;;;;;;;;;;;;;;;;4945717;29;20045;-83
2023/07/12 03:54:03;;;;;;;;;;;;;;;;;;4966720;28;19927;-84
2023/07/12 03:56:36;;;;;;;;;;;;;;;;;;4950238;29;19933;-83
2023/07/12 03:59:04;;;;;;;;;;;;;;;;;;4951493;29;19931;-83
2023/07/12 04:01:31;;;;;;;;;;;;;;;;;;4945900;29;20323;-86
2023/07/12 04:03:59;;;;;;;;;;;;;;;;;;4941499;29;19926;-87
2023/07/12 04:06:26;;;;;;;;;;;;;;;;;;4951777;28;19931;-85
2023/07/12 04:08:54;;;;;;;;;;;;;;;;;;4941216;29;19934;-85
2023/07/12 04:11:21;;;;;;;;;;;;;;;;;;4955227;28;20291;-84
2023/07/12 04:13:54;;;;;;;;;;;;;;;;;;4949571;29;20299;-86
2023/07/12 04:16:22;;;;;;;;;;;;;;;;;;4946847;29;19934;-85
2023/07/12 04:18:49;;;;;;;;;;;;;;;;;;4948245;29;19931;-86
2023/07/12 04:21:17;;;;;;;;;;;;;;;;;;4949409;29;19930;-86
2023/07/12 04:23:44;;;;;;;;;;;;;;;;;;4960299;28;20608;-85
2023/07/12 04:26:12;;;;;;;;;;;;;;;;;;4948991;29;20655;-84
2023/07/12 04:28:48;;;;;;;;;;;;;;;;;;4947312;29;19934;-83
2023/07/12 04:31:21;;;;;;;;;;;;;;;;;;4946556;29;19933;-83
2023/07/12 04:33:49;;;;;;;;;;;;;;;;;;4952034;28;19934;-82
2023/07/12 04:36:16;;;;;;;;;;;;;;;;;;4948035;29;20282;-82
2023/07/12 04:38:49;;;;;;;;;;;;;;;;;;4948419;29;20299;-83
2023/07/12 04:41:16;;;;;;;;;;;;;;;;;;4943437;29;19931;-83
2023/07/12 04:43:44;;;;;;;;;;;;;;;;;;4944415;29;20564;-82
2023/07/12 04:46:11;;;;;;;;;;;;;;;;;;4944294;29;19931;-83
2023/07/12 04:48:39;;;;;;;;;;;;;;;;;;4948537;29;20294;-82
2023/07/12 04:51:07;;;;;;;;;;;;;;;;;;4946962;29;19930;-81
2023/07/12 04:53:34;;;;;;;;;;;;;;;;;;4962405;28;20400;-80
2023/07/12 04:56:02;;;;;;;;;;;;;;;;;;4948562;29;19934;-81
2023/07/12 04:58:29;;;;;;;;;;;;;;;;;;4942012;28;20371;-81
2023/07/12 05:00:58;;;;;;;;;;;;;;;;;;4948197;29;19926;-83
2023/07/12 05:03:25;;;;;;;;;;;;;;;;;;4944549;29;19931;-84
2023/07/12 05:05:53;;;;;;;;;;;;;;;;;;4948028;29;19930;-84
2023/07/12 05:08:20;;;;;;;;;;;;;;;;;;4946927;29;19930;-83
2023/07/12 05:10:48;;;;;;;;;;;;;;;;;;4948130;29;19930;-84
2023/07/12 05:13:15;;;;;;;;;;;;;;;;;;4943535;29;19938;-84
2023/07/12 05:15:43;;;;;;;;;;;;;;;;;;4944114;29;19938;-84
2023/07/12 05:18:11;;;;;;;;;;;;;;;;;;4951690;28;19941;-83
2023/07/12 05:20:38;;;;;;;;;;;;;;;;;;4953122;29;19938;-86
2023/07/12 05:23:06;;;;;;;;;;;;;;;;;;4969140;28;19934;-84
2023/07/12 05:25:33;;;;;;;;;;;;;;;;;;4953271;28;19930;-85
2023/07/12 05:28:02;;;;;;;;;;;;;;;;;;4951777;29;19930;-85
2023/07/12 05:30:29;;;;;;;;;;;;;;;;;;4967540;28;19937;-85
2023/07/12 05:32:57;;;;;;;;;;;;;;;;;;4959796;28;19926;-84
2023/07/12 05:35:24;;;;;;;;;;;;;;;;;;4949213;29;19930;-82
2023/07/12 05:37:52;;;;;;;;;;;;;;;;;;4963671;28;20307;-84
2023/07/12 05:40:20;;;;;;;;;;;;;;;;;;4948861;29;19934;-84
2023/07/12 05:42:47;;;;;;;;;;;;;;;;;;4950388;29;19927;-82
2023/07/12 05:45:15;;;;;;;;;;;;;;;;;;4949287;29;20273;-82
2023/07/12 05:47:45;;;;;;;;;;;;;;;;;;4962304;28;19927;-82
2023/07/12 05:50:13;;;;;;;;;;;;;;;;;;4950269;29;19927;-82
2023/07/12 05:52:40;;;;;;;;;;;;;;;;;;4965164;28;19930;-82
2023/07/12 05:55:08;;;;;;;;;;;;;;;;;;4948759;29;20576;-83
2023/07/12 05:57:35;;;;;;;;;;;;;;;;;;4950175;29;19926;-84
2023/07/12 06:00:04;;;;;;;;;;;;;;;;;;4950691;29;19927;-81
2023/07/12 06:02:32;;;;;;;;;;;;;;;;;;4950610;29;19937;-86
2023/07/12 06:05:04;;;;;;;;;;;;;;;;;;4950024;29;19927;-86
2023/07/12 06:07:32;;;;;;;;;;;;;;;;;;4944836;29;20406;-85
2023/07/12 06:09:59;;;;;;;;;;;;;;;;;;4946850;28;19934;-84
2023/07/12 06:12:27;;;;;;;;;;;;;;;;;;4960004;28;20405;-84
2023/07/12 06:15:00;;;;;;;;;;;;;;;;;;4946492;29;19942;-86
2023/07/12 06:17:28;;;;;;;;;;;;;;;;;;4947786;29;19926;-87
2023/07/12 06:19:55;;;;;;;;;;;;;;;;;;4959781;28;19927;-83
2023/07/12 06:22:23;;;;;;;;;;;;;;;;;;4945401;29;19927;-85
2023/07/12 06:24:51;;;;;;;;;;;;;;;;;;4951024;29;19931;-83
2023/07/12 06:27:23;;;;;;;;;;;;;;;;;;4942664;28;19999;-85
2023/07/12 06:29:51;;;;;;;;;;;;;;;;;;4945226;28;19930;-85
2023/07/12 06:32:23;;;;;;;;;;;;;;;;;;4946889;29;19930;-83
2023/07/12 06:34:51;;;;;;;;;;;;;;;;;;4947011;29;19930;-82
2023/07/12 06:37:18;;;;;;;;;;;;;;;;;;4949282;29;19938;-82
2023/07/12 06:39:51;;;;;;;;;;;;;;;;;;4946698;29;19935;-82
2023/07/12 06:42:18;;;;;;;;;;;;;;;;;;4941865;29;19934;-84
2023/07/12 06:44:46;;;;;;;;;;;;;;;;;;4949343;29;19927;-81
2023/07/12 06:47:14;;;;;;;;;;;;;;;;;;4946257;29;19931;-81
2023/07/12 06:49:47;;;;;;;;;;;;;;;;;;4944522;29;19931;-82
2023/07/12 06:52:19;;;;;;;;;;;;;;;;;;4944162;29;19942;-84
2023/07/12 06:54:47;;;;;;;;;;;;;;;;;;4944179;29;20675;-81
2023/07/12 06:57:14;;;;;;;;;;;;;;;;;;4959184;28;19931;-82
2023/07/12 06:59:47;;;;;;;;;;;;;;;;;;4907843;29;19948;-82
2023/07/12 07:02:20;;;;;;;;;;;;;;;;;;4922816;29;19940;-82
2023/07/12 07:04:47;;;;;;;;;;;;;;;;;;4929886;28;20318;-84
2023/07/12 07:07:15;;;;;;;;;;;;;;;;;;4918430;29;19935;-84
2023/07/12 07:09:42;;;;;;;;;;;;;;;;;;4920552;29;19935;-82
2023/07/12 07:12:10;;;;;;;;;;;;;;;;;;4912042;29;20680;-82
2023/07/12 07:14:37;;;;;;;;;;;;;;;;;;4915703;28;19935;-82
2023/07/12 07:17:05;;;;;;;;;;;;;;;;;;4915727;29;19934;-83
2023/07/12 07:19:33;;;;;;;;;;;;;;;;;;4931660;28;19935;-83
2023/07/12 07:22:00;;;;;;;;;;;;;;;;;;4919390;29;20277;-85
2023/07/12 07:24:28;;;;;;;;;;;;;;;;;;4910310;29;19935;-82
2023/07/12 07:26:56;;;;;;;;;;;;;;;;;;4927814;28;19934;-80
2023/07/12 07:29:28;;;;;;;;;;;;;;;;;;4909094;29;19941;-81
2023/07/12 07:31:56;;;;;;;;;;;;;;;;;;4911968;28;20662;-82
2023/07/12 07:34:24;;;;;;;;;;;;;;;;;;4912631;28;19935;-85
2023/07/12 07:36:56;;;;;;;;;;;;;;;;;;4928487;28;20463;-79
2023/07/12 07:39:24;;;;;;;;;;;;;;;;;;4913554;29;21253;-82
2023/07/12 07:41:51;;;;;;;;;;;;;;;;;;4930065;28;19935;-81
2023/07/12 07:44:19;;;;;;;;;;;;;;;;;;4913310;29;19935;-82
2023/07/12 07:46:47;;;;;;;;;;;;;;;;;;4912159;29;19942;-82
2023/07/12 07:49:14;;;;;;;;;;;;;;;;;;4909520;29;20458;-82
2023/07/12 07:51:42;;;;;;;;;;;;;;;;;;4913503;29;19935;-84
2023/07/12 07:54:14;;;;;;;;;;;;;;;;;;4908733;29;19935;-81
2023/07/12 07:56:42;;;;;;;;;;;;;;;;;;4910986;29;19935;-83
2023/07/12 07:59:14;;;;;;;;;;;;;;;;;;4908309;29;19935;-82
2023/07/12 08:01:43;;;;;;;;;;;;;;;;;;4924439;28;19935;-82
2023/07/12 08:04:11;;;;;;;;;;;;;;;;;;4920687;28;19966;-83
2023/07/12 08:06:39;;;;;;;;;;;;;;;;;;4913175;29;19934;-82
2023/07/12 08:09:07;;;;;;;;;;;;;;;;;;4916610;29;19935;-82
2023/07/12 08:11:40;;;;;;;;;;;;;;;;;;4906937;29;19934;-81
2023/07/12 08:14:10;;;;;;;;;;;;;;;;;;4912038;29;19942;-82
2023/07/12 08:16:48;;;;;;;;;;;;;;;;;;4908882;28;19945;-83
2023/07/12 08:19:28;;;;;;;;;;;;;;;;;;4910132;28;19934;-81
2023/07/12 08:22:06;;;;;;;;;;;;;;;;;;4906721;28;19941;-82
2023/07/12 08:24:34;;;;;;;;;;;;;;;;;;4908113;29;20639;-81
2023/07/12 08:27:03;;;;;;;;;;;;;;;;;;4904406;28;19934;-81
2023/07/12 08:29:36;;;;;;;;;;;;;;;;;;4909196;29;19934;-81
2023/07/12 08:32:10;;;;;;;;;;;;;;;;;;4906929;29;19935;-82
2023/07/12 08:34:49;;;;;;;;;;;;;;;;;;4926011;29;19985;-81
2023/07/12 08:37:17;;;;;;;;;;;;;;;;;;4919100;29;19989;-82
2023/07/12 08:39:49;;;;;;;;;;;;;;;;;;4919736;29;20379;-83
2023/07/12 08:42:17;;;;;;;;;;;;;;;;;;4910999;28;20331;-82
2023/07/12 08:44:49;;;;;;;;;;;;;;;;;;4914787;29;19935;-81
2023/07/12 08:47:17;;;;;;;;;;;;;;;;;;4915333;28;20722;-83
2023/07/12 08:49:50;;;;;;;;;;;;;;;;;;4907457;29;19938;-82
2023/07/12 08:52:18;;;;;;;;;;;;;;;;;;4906952;28;19935;-81
2023/07/12 08:54:45;;;;;;;;;;;;;;;;;;4918218;28;19977;-80
2023/07/12 08:57:14;;;;;;;;;;;;;;;;;;4918788;29;20748;-83
2023/07/12 08:59:46;;;;;;;;;;;;;;;;;;4912095;29;19935;-82
2023/07/12 09:02:14;;;;;;;;;;;;;;;;;;4903488;29;19934;-82
2023/07/12 09:04:41;;;;;;;;;;;;;;;;;;4915902;28;19964;-84
2023/07/12 09:07:09;;;;;;;;;;;;;;;;;;4915668;29;20570;-81
2023/07/12 09:09:36;;;;;;;;;;;;;;;;;;4910197;29;20411;-82
2023/07/12 09:12:09;;;;;;;;;;;;;;;;;;4909021;29;19958;-81
2023/07/12 09:14:36;;;;;;;;;;;;;;;;;;4913102;29;19935;-82
2023/07/12 09:17:09;;;;;;;;;;;;;;;;;;4907685;29;20799;-83
2023/07/12 09:19:37;;;;;;;;;;;;;;;;;;4907173;29;19942;-83
2023/07/12 09:22:04;;;;;;;;;;;;;;;;;;4906026;29;19942;-81
2023/07/12 09:24:32;;;;;;;;;;;;;;;;;;4906095;29;19935;-82
2023/07/12 09:26:59;;;;;;;;;;;;;;;;;;4908643;28;19937;-81
2023/07/12 09:29:28;;;;;;;;;;;;;;;;;;4915080;29;19934;-82
2023/07/12 09:31:56;;;;;;;;;;;;;;;;;;4915417;29;19934;-80
2023/07/12 09:34:24;;;;;;;;;;;;;;;;;;4908151;29;19935;-82
2023/07/12 09:36:51;;;;;;;;;;;;;;;;;;4905517;29;20446;-80
2023/07/12 09:39:19;;;;;;;;;;;;;;;;;;4908743;29;19946;-80
2023/07/12 09:41:51;;;;;;;;;;;;;;;;;;4906911;29;20671;-81
2023/07/12 09:44:19;;;;;;;;;;;;;;;;;;4910862;29;19950;-81
2023/07/12 09:46:46;;;;;;;;;;;;;;;;;;4910918;29;20318;-80
2023/07/12 09:49:14;;;;;;;;;;;;;;;;;;4905412;28;19942;-81
2023/07/12 09:51:47;;;;;;;;;;;;;;;;;;4907765;29;20770;-83
2023/07/12 09:54:15;;;;;;;;;;;;;;;;;;4913609;29;19938;-83
2023/07/12 09:56:42;;;;;;;;;;;;;;;;;;4925424;28;19934;-83
2023/07/12 09:59:10;;;;;;;;;;;;;;;;;;4917975;29;19941;-81
2023/07/12 10:01:38;;;;;;;;;;;;;;;;;;4913901;29;19945;-81
2023/07/12 10:04:05;;;;;;;;;;;;;;;;;;4911313;28;19931;-83
2023/07/12 10:06:34;;;;;;;;;;;;;;;;;;4917078;29;19942;-81
2023/07/12 10:09:06;;;;;;;;;;;;;;;;;;4914194;29;19935;-80
2023/07/12 10:11:39;;;;;;;;;;;;;;;;;;4913908;29;19934;-82
2023/07/12 10:14:12;;;;;;;;;;;;;;;;;;4915483;29;20603;-81
2023/07/12 10:16:39;;;;;;;;;;;;;;;;;;4911360;28;21612;-79
2023/07/12 10:19:07;;;;;;;;;;;;;;;;;;4911758;28;20323;-82
2023/07/12 10:21:36;;;;;;;;;;;;;;;;;;4910733;29;19945;-80
2023/07/12 10:24:03;;;;;;;;;;;;;;;;;;4925623;28;19989;-82
2023/07/12 10:26:36;;;;;;;;;;;;;;;;;;4912628;29;19927;-82
2023/07/12 10:29:04;;;;;;;;;;;;;;;;;;4922939;29;20977;-81
2023/07/12 10:31:31;;;;;;;;;;;;;;;;;;4912690;29;20384;-80
2023/07/12 10:33:59;;;;;;;;;;;;;;;;;;4934045;28;19934;-82
2023/07/12 10:36:26;;;;;;;;;;;;;;;;;;4910716;28;19935;-80
2023/07/12 10:38:54;;;;;;;;;;;;;;;;;;4909067;29;19937;-83
2023/07/12 10:41:26;;;;;;;;;;;;;;;;;;4917592;29;19942;-82
2023/07/12 10:43:54;;;;;;;;;;;;;;;;;;4918778;29;19934;-81
2023/07/12 10:46:29;;;;;;;;;;;;;;;;;;4926488;29;19935;-82
2023/07/12 10:48:57;;;;;;;;;;;;;;;;;;4917408;29;19934;-83
2023/07/12 10:51:24;;;;;;;;;;;;;;;;;;4921958;29;19930;-81
2023/07/12 10:53:52;;;;;;;;;;;;;;;;;;4918216;29;20429;-81
2023/07/12 10:56:19;;;;;;;;;;;;;;;;;;4934992;28;19931;-80
2023/07/12 10:58:52;;;;;;;;;;;;;;;;;;4917331;29;19942;-80
2023/07/12 11:01:19;;;;;;;;;;;;;;;;;;4913641;29;19942;-80
2023/07/12 11:03:48;;;;;;;;;;;;;;;;;;4913960;29;20587;-83
2023/07/12 11:06:15;;;;;;;;;;;;;;;;;;4914266;29;19942;-83
2023/07/12 11:08:48;;;;;;;;;;;;;;;;;;4908840;29;19938;-79
2023/07/12 11:11:15;;;;;;;;;;;;;;;;;;4910435;29;19935;-80
2023/07/12 11:13:43;;;;;;;;;;;;;;;;;;4922722;29;19934;-80
2023/07/12 11:16:11;;;;;;;;;;;;;;;;;;4919005;28;19935;-81
2023/07/12 11:18:38;;;;;;;;;;;;;;;;;;4921921;29;19946;-83
2023/07/12 11:21:06;;;;;;;;;;;;;;;;;;4914806;29;19934;-81
2023/07/12 11:23:34;;;;;;;;;;;;;;;;;;4908341;29;20488;-81
2023/07/12 11:26:01;;;;;;;;;;;;;;;;;;4915373;28;19941;-82
2023/07/12 11:28:29;;;;;;;;;;;;;;;;;;4911091;28;19935;-81
2023/07/12 11:30:56;;;;;;;;;;;;;;;;;;4917805;29;19934;-82
2023/07/12 11:33:24;;;;;;;;;;;;;;;;;;4917435;28;19942;-82
2023/07/12 11:35:51;;;;;;;;;;;;;;;;;;4918825;28;20367;-81
2023/07/12 11:38:19;;;;;;;;;;;;;;;;;;4918859;29;19950;-81
2023/07/12 11:40:47;;;;;;;;;;;;;;;;;;4908407;29;21762;-82
2023/07/12 11:43:14;;;;;;;;;;;;;;;;;;4916311;29;19935;-83
2023/07/12 11:45:47;;;;;;;;;;;;;;;;;;4912656;29;19935;-81
2023/07/12 11:48:14;;;;;;;;;;;;;;;;;;4921010;28;20391;-81
2023/07/12 11:50:42;;;;;;;;;;;;;;;;;;4916563;28;19934;-81
2023/07/12 11:53:10;;;;;;;;;;;;;;;;;;4914413;29;21607;-82
2023/07/12 11:55:39;;;;;;;;;;;;;;;;;;4928401;28;19935;-83
2023/07/12 11:58:11;;;;;;;;;;;;;;;;;;4891066;28;19939;-81
2023/07/12 12:00:39;;;;;;;;;;;;;;;;;;4910096;29;19935;-83
2023/07/12 12:03:07;;;;;;;;;;;;;;;;;;4914856;29;19930;-82
2023/07/12 12:05:35;;;;;;;;;;;;;;;;;;4929015;28;20303;-80
2023/07/12 12:08:03;;;;;;;;;;;;;;;;;;4921228;29;19935;-82
2023/07/12 12:10:32;;;;;;;;;;;;;;;;;;4915931;28;20873;-84
2023/07/12 12:13:04;;;;;;;;;;;;;;;;;;4916234;29;19965;-82
2023/07/12 12:15:32;;;;;;;;;;;;;;;;;;4916222;29;19935;-80
2023/07/12 12:17:59;;;;;;;;;;;;;;;;;;4915646;29;19941;-82
2023/07/12 12:20:28;;;;;;;;;;;;;;;;;;4915905;29;19942;-82
2023/07/12 12:22:56;;;;;;;;;;;;;;;;;;4918876;29;19930;-80
2023/07/12 12:25:29;;;;;;;;;;;;;;;;;;4909483;28;19935;-84
2023/07/12 12:27:56;;;;;;;;;;;;;;;;;;4919096;28;19935;-82
2023/07/12 12:30:30;;;;;;;;;;;;;;;;;;4908227;29;19934;-82
2023/07/12 12:33:04;;;;;;;;;;;;;;;;;;4913090;29;19931;-81
2023/07/12 12:35:31;;;;;;;;;;;;;;;;;;4911974;28;19935;-83
2023/07/12 12:37:59;;;;;;;;;;;;;;;;;;4913054;28;19942;-82
2023/07/12 12:40:31;;;;;;;;;;;;;;;;;;4919123;29;19931;-83
2023/07/12 12:43:00;;;;;;;;;;;;;;;;;;4934201;28;19934;-80
2023/07/12 12:45:27;;;;;;;;;;;;;;;;;;4910794;28;19935;-79
2023/07/12 12:48:00;;;;;;;;;;;;;;;;;;4913142;29;19934;-82
2023/07/12 12:50:27;;;;;;;;;;;;;;;;;;4920224;28;19946;-80
2023/07/12 12:53:00;;;;;;;;;;;;;;;;;;4930989;28;19977;-82
2023/07/12 12:55:33;;;;;;;;;;;;;;;;;;4911502;29;19934;-81
2023/07/12 12:58:01;;;;;;;;;;;;;;;;;;4907970;29;19935;-81
2023/07/12 13:00:28;;;;;;;;;;;;;;;;;;4884905;29;19935;-81
2023/07/12 13:02:56;;;;;;;;;;;;;;;;;;4913532;29;19941;-78
2023/07/12 13:05:28;;;;;;;;;;;;;;;;;;4915566;29;19941;-83
2023/07/12 13:07:56;;;;;;;;;;;;;;;;;;4914195;28;19938;-80
2023/07/12 13:10:24;;;;;;;;;;;;;;;;;;4919562;29;20411;-81
2023/07/12 13:12:56;;;;;;;;;;;;;;;;;;4915978;29;19935;-82
2023/07/12 13:15:24;;;;;;;;;;;;;;;;;;4909164;28;19945;-79
2023/07/12 13:17:52;;;;;;;;;;;;;;;;;;4909950;29;19942;-81
2023/07/12 13:20:19;;;;;;;;;;;;;;;;;;4911789;29;19950;-83
2023/07/12 13:22:52;;;;;;;;;;;;;;;;;;4909700;29;19954;-81
2023/07/12 13:25:20;;;;;;;;;;;;;;;;;;4913118;29;19935;-80
2023/07/12 13:27:53;;;;;;;;;;;;;;;;;;4913319;29;19934;-79
2023/07/12 13:30:20;;;;;;;;;;;;;;;;;;4914624;29;20031;-81
2023/07/12 13:32:53;;;;;;;;;;;;;;;;;;4908862;28;19941;-83
2023/07/12 13:35:25;;;;;;;;;;;;;;;;;;4916233;29;20315;-79
2023/07/12 13:37:53;;;;;;;;;;;;;;;;;;4919765;28;19939;-80
2023/07/12 13:40:26;;;;;;;;;;;;;;;;;;4907211;28;19945;-80
2023/07/12 13:42:53;;;;;;;;;;;;;;;;;;4910956;29;21511;-79
2023/07/12 13:45:21;;;;;;;;;;;;;;;;;;4910553;29;19942;-82
2023/07/12 13:47:48;;;;;;;;;;;;;;;;;;4925412;28;19946;-79
2023/07/12 13:50:16;;;;;;;;;;;;;;;;;;4914864;29;19934;-80
2023/07/12 13:52:48;;;;;;;;;;;;;;;;;;4910468;29;19938;-81
2023/07/12 13:55:16;;;;;;;;;;;;;;;;;;4910926;29;20679;-81
2023/07/12 13:57:48;;;;;;;;;;;;;;;;;;4914026;29;20561;-80
2023/07/12 14:00:18;;;;;;;;;;;;;;;;;;4890178;28;19974;-83
2023/07/12 14:02:45;;;;;;;;;;;;;;;;;;4915957;28;19935;-81
2023/07/12 14:05:18;;;;;;;;;;;;;;;;;;4910256;29;19950;-79
2023/07/12 14:07:45;;;;;;;;;;;;;;;;;;4912728;29;20007;-79
2023/07/12 14:10:13;;;;;;;;;;;;;;;;;;4922113;29;20303;-79
2023/07/12 14:12:41;;;;;;;;;;;;;;;;;;4921523;28;19949;-81
2023/07/12 14:15:08;;;;;;;;;;;;;;;;;;4910349;29;19934;-82
2023/07/12 14:17:41;;;;;;;;;;;;;;;;;;4916172;28;20391;-82
2023/07/12 14:20:08;;;;;;;;;;;;;;;;;;4923029;29;19934;-82
2023/07/12 14:22:42;;;;;;;;;;;;;;;;;;4915866;29;20399;-82
2023/07/12 14:25:09;;;;;;;;;;;;;;;;;;4914781;29;19934;-81
2023/07/12 14:27:37;;;;;;;;;;;;;;;;;;4909625;29;20708;-81
2023/07/12 14:30:09;;;;;;;;;;;;;;;;;;4915724;29;19959;-82
2023/07/12 14:32:42;;;;;;;;;;;;;;;;;;4919551;29;19935;-80
2023/07/12 14:35:09;;;;;;;;;;;;;;;;;;4907228;29;19935;-81
2023/07/12 14:37:37;;;;;;;;;;;;;;;;;;4908984;28;19935;-80
2023/07/12 14:40:06;;;;;;;;;;;;;;;;;;4916762;29;20389;-80
2023/07/12 14:42:39;;;;;;;;;;;;;;;;;;4920475;29;19942;-82
2023/07/12 14:45:12;;;;;;;;;;;;;;;;;;4911418;29;20149;-80
2023/07/12 14:47:44;;;;;;;;;;;;;;;;;;4915303;29;19937;-82
2023/07/12 14:50:20;;;;;;;;;;;;;;;;;;4908102;29;19940;-83
2023/07/12 14:52:47;;;;;;;;;;;;;;;;;;4927439;28;19938;-81
2023/07/12 14:55:20;;;;;;;;;;;;;;;;;;4914104;29;19931;-79
2023/07/12 14:57:47;;;;;;;;;;;;;;;;;;4912217;28;19934;-80
2023/07/12 15:00:20;;;;;;;;;;;;;;;;;;4891620;28;20016;-85
2023/07/12 15:02:47;;;;;;;;;;;;;;;;;;4912491;29;19935;-82
2023/07/12 15:05:15;;;;;;;;;;;;;;;;;;4915910;29;19934;-79
2023/07/12 15:07:48;;;;;;;;;;;;;;;;;;4916869;29;19935;-84
2023/07/12 15:10:20;;;;;;;;;;;;;;;;;;4914941;29;19935;-81
2023/07/12 15:12:48;;;;;;;;;;;;;;;;;;4929715;28;19950;-83
2023/07/12 15:15:15;;;;;;;;;;;;;;;;;;4908263;29;20029;-81
2023/07/12 15:17:48;;;;;;;;;;;;;;;;;;4924056;29;20709;-84
2023/07/12 15:20:16;;;;;;;;;;;;;;;;;;4921874;29;20666;-80
2023/07/12 15:22:49;;;;;;;;;;;;;;;;;;4911504;29;19938;-81
2023/07/12 15:25:16;;;;;;;;;;;;;;;;;;4916330;29;19930;-80
2023/07/12 15:27:44;;;;;;;;;;;;;;;;;;4915481;29;19934;-81
2023/07/12 15:30:11;;;;;;;;;;;;;;;;;;4911799;29;20418;-80
2023/07/12 15:32:39;;;;;;;;;;;;;;;;;;4911337;29;19934;-80
2023/07/12 15:35:06;;;;;;;;;;;;;;;;;;4915842;29;20410;-80
2023/07/12 15:37:39;;;;;;;;;;;;;;;;;;4911132;29;20291;-81
2023/07/12 15:40:07;;;;;;;;;;;;;;;;;;4917441;29;19934;-81
2023/07/12 15:42:40;;;;;;;;;;;;;;;;;;4918016;29;19934;-81
2023/07/12 15:45:07;;;;;;;;;;;;;;;;;;4929251;28;19945;-81
2023/07/12 15:47:40;;;;;;;;;;;;;;;;;;4917226;29;19941;-86
2023/07/12 15:50:07;;;;;;;;;;;;;;;;;;4911280;28;19935;-80
2023/07/12 15:52:35;;;;;;;;;;;;;;;;;;4911529;29;19935;-82
2023/07/12 15:55:04;;;;;;;;;;;;;;;;;;4918141;29;19941;-81
2023/07/12 15:57:36;;;;;;;;;;;;;;;;;;4931196;28;19934;-83
2023/07/12 16:00:04;;;;;;;;;;;;;;;;;;4891258;28;19934;-84
2023/07/12 16:02:32;;;;;;;;;;;;;;;;;;4925798;28;19941;-81
2023/07/12 16:05:04;;;;;;;;;;;;;;;;;;4913390;29;20790;-81
2023/07/12 16:07:32;;;;;;;;;;;;;;;;;;4912828;29;19935;-80
2023/07/12 16:10:00;;;;;;;;;;;;;;;;;;4921084;29;20666;-81
2023/07/12 16:12:27;;;;;;;;;;;;;;;;;;4907703;29;19973;-81
2023/07/12 16:14:55;;;;;;;;;;;;;;;;;;4912058;29;19935;-81
2023/07/12 16:17:28;;;;;;;;;;;;;;;;;;4912736;28;19939;-81
2023/07/12 16:20:00;;;;;;;;;;;;;;;;;;4906067;29;19942;-80
2023/07/12 16:22:28;;;;;;;;;;;;;;;;;;4907760;29;19935;-80
2023/07/12 16:25:02;;;;;;;;;;;;;;;;;;4907770;29;20515;-80
2023/07/12 16:27:30;;;;;;;;;;;;;;;;;;4907865;29;19935;-81
2023/07/12 16:30:02;;;;;;;;;;;;;;;;;;4904545;29;19951;-80
2023/07/12 16:32:30;;;;;;;;;;;;;;;;;;4907478;29;19935;-81
2023/07/12 16:34:57;;;;;;;;;;;;;;;;;;4914176;29;20637;-79
2023/07/12 16:37:25;;;;;;;;;;;;;;;;;;4918092;29;19934;-81
2023/07/12 16:39:55;;;;;;;;;;;;;;;;;;4917137;29;19934;-80
2023/07/12 16:42:22;;;;;;;;;;;;;;;;;;4919822;29;19997;-79
2023/07/12 16:44:55;;;;;;;;;;;;;;;;;;4924647;28;19934;-80
2023/07/12 16:47:27;;;;;;;;;;;;;;;;;;4934216;28;20747;-80
2023/07/12 16:50:00;;;;;;;;;;;;;;;;;;4930938;28;20387;-80
2023/07/12 16:52:32;;;;;;;;;;;;;;;;;;4911559;29;19934;-80
2023/07/12 16:55:00;;;;;;;;;;;;;;;;;;4912373;29;20527;-80
2023/07/12 16:57:32;;;;;;;;;;;;;;;;;;4914842;29;19934;-82